createdAt,value
2023-02-23T00:02:28.045Z,10.86
2023-02-23T00:04:58.088Z,10.85
2023-02-23T00:07:28.107Z,10.85
2023-02-23T00:09:58.182Z,10.95
2023-02-23T00:12:30.820Z,10.99
2023-02-23T00:15:01.361Z,10.98
2023-02-23T00:17:31.719Z,11.03
2023-02-23T00:20:07.480Z,11.02
2023-02-23T00:22:37.808Z,11.06
2023-02-23T00:25:10.258Z,11.11
2023-02-23T00:27:46.096Z,11.12
2023-02-23T00:30:18.386Z,11.12
2023-02-23T00:32:52.973Z,11.15
2023-02-23T00:35:24.997Z,11.18
2023-02-23T00:37:55.034Z,11.20
2023-02-23T00:40:25.316Z,11.26
2023-02-23T00:42:58.299Z,11.32
2023-02-23T00:45:30.666Z,11.37
2023-02-23T00:48:00.681Z,11.35
2023-02-23T00:50:30.984Z,11.32
2023-02-23T00:53:01.825Z,11.25
2023-02-23T00:55:31.874Z,11.29
2023-02-23T00:58:04.834Z,11.26
2023-02-23T01:00:42.294Z,11.25
2023-02-23T01:03:12.313Z,11.24
2023-02-23T01:05:44.020Z,11.23
2023-02-23T01:08:15.544Z,11.25
2023-02-23T01:10:52.464Z,11.31
2023-02-23T01:13:26.994Z,11.29
2023-02-23T01:15:57.138Z,11.36
2023-02-23T01:18:28.917Z,11.36
2023-02-23T01:20:59.023Z,11.37
2023-02-23T01:23:29.135Z,11.37
2023-02-23T01:25:59.149Z,11.44
2023-02-23T01:28:31.854Z,11.38
2023-02-23T01:31:05.932Z,11.36
2023-02-23T01:33:35.995Z,11.34
2023-02-23T01:36:06.076Z,11.36
2023-02-23T01:38:36.180Z,11.42
2023-02-23T01:41:07.498Z,11.40
2023-02-23T01:44:01.527Z,11.35
2023-02-23T01:46:36.366Z,11.39
2023-02-23T01:49:06.888Z,11.43
2023-02-23T01:51:39.652Z,11.43
2023-02-23T01:54:14.472Z,11.43
2023-02-23T01:56:49.369Z,11.43
2023-02-23T01:59:22.879Z,11.44
2023-02-23T02:01:52.979Z,11.45
2023-02-23T02:04:25.430Z,11.48
2023-02-23T02:06:57.039Z,11.58
2023-02-23T02:09:28.519Z,11.56
2023-02-23T02:11:59.128Z,11.50
2023-02-23T02:14:33.760Z,11.45
2023-02-23T02:17:18.167Z,11.44
2023-02-23T02:20:26.480Z,11.42
2023-02-23T02:23:31.832Z,11.41
2023-02-23T02:26:11.699Z,11.40
2023-02-23T02:29:00.088Z,11.44
2023-02-23T02:32:08.075Z,11.44
2023-02-23T02:35:04.450Z,11.45
2023-02-23T02:37:56.772Z,11.43
2023-02-23T02:40:32.582Z,11.42
2023-02-23T02:43:10.380Z,11.39
2023-02-23T02:45:48.881Z,11.39
2023-02-23T02:48:25.806Z,11.42
2023-02-23T02:50:59.336Z,11.41
2023-02-23T02:53:38.789Z,11.50
2023-02-23T02:56:09.992Z,11.50
2023-02-23T02:58:43.658Z,11.52
2023-02-23T03:01:29.967Z,11.54
2023-02-23T03:04:14.784Z,11.47
2023-02-23T03:07:02.016Z,11.39
2023-02-23T03:09:52.631Z,11.45
2023-02-23T03:12:42.756Z,11.56
2023-02-23T03:15:36.854Z,11.63
2023-02-23T03:18:26.418Z,11.59
2023-02-23T03:21:15.407Z,11.65
2023-02-23T03:24:05.399Z,11.70
2023-02-23T03:26:54.242Z,11.70
2023-02-23T03:29:46.228Z,11.63
2023-02-23T03:32:36.151Z,11.59
2023-02-23T03:35:22.805Z,11.60
2023-02-23T03:38:09.830Z,11.59
2023-02-23T03:40:54.786Z,11.48
2023-02-23T03:43:49.002Z,11.29
2023-02-23T03:46:34.009Z,11.08
2023-02-23T03:49:19.599Z,10.91
2023-02-23T03:52:04.863Z,10.76
2023-02-23T03:54:50.593Z,10.64
2023-02-23T03:57:35.793Z,10.57
2023-02-23T04:00:25.178Z,10.61
2023-02-23T04:03:09.679Z,10.64
2023-02-23T04:05:55.345Z,10.68
2023-02-23T04:08:41.743Z,10.77
2023-02-23T04:11:42.891Z,10.79
2023-02-23T04:14:17.344Z,10.86
2023-02-23T04:16:47.596Z,10.84
2023-02-23T04:19:17.735Z,10.87
2023-02-23T04:21:47.808Z,10.91
2023-02-23T04:24:17.843Z,10.71
2023-02-23T04:26:47.933Z,10.54
2023-02-23T04:29:18.294Z,10.63
2023-02-23T04:31:52.183Z,10.72
2023-02-23T04:34:22.285Z,10.78
2023-02-23T04:36:52.569Z,10.75
2023-02-23T04:39:22.644Z,10.66
2023-02-23T04:41:52.902Z,10.58
2023-02-23T04:44:23.237Z,10.51
2023-02-23T04:46:55.922Z,10.46
2023-02-23T04:49:26.753Z,10.36
2023-02-23T04:51:56.809Z,10.33
2023-02-23T04:54:26.862Z,10.27
2023-02-23T04:56:56.983Z,10.24
2023-02-23T04:59:27.177Z,10.23
2023-02-23T05:01:59.863Z,10.24
2023-02-23T05:04:29.928Z,10.23
2023-02-23T05:07:00.432Z,10.23
2023-02-23T05:09:30.608Z,10.27
2023-02-23T05:12:00.651Z,10.29
2023-02-23T05:14:30.776Z,10.27
2023-02-23T05:17:03.510Z,10.31
2023-02-23T05:19:33.575Z,10.23
2023-02-23T05:22:03.597Z,10.27
2023-02-23T05:24:33.662Z,10.22
2023-02-23T05:27:03.681Z,10.22
2023-02-23T05:29:33.791Z,10.22
2023-02-23T05:32:06.607Z,10.21
2023-02-23T05:34:39.272Z,10.19
2023-02-23T05:37:09.465Z,10.18
2023-02-23T05:39:39.555Z,10.17
2023-02-23T05:42:09.833Z,10.14
2023-02-23T05:44:39.875Z,10.09
2023-02-23T05:47:13.308Z,10.08
2023-02-23T05:49:43.585Z,10.10
2023-02-23T05:52:13.654Z,10.12
2023-02-23T05:54:43.731Z,10.11
2023-02-23T05:57:13.735Z,10.08
2023-02-23T05:59:43.972Z,10.07
2023-02-23T06:02:16.606Z,9.95
2023-02-23T06:04:47.112Z,9.96
2023-02-23T06:07:17.207Z,10.00
2023-02-23T06:09:47.269Z,10.02
2023-02-23T06:12:17.361Z,10.04
2023-02-23T06:14:47.523Z,10.05
2023-02-23T06:17:21.068Z,10.07
2023-02-23T06:19:51.223Z,10.12
2023-02-23T06:22:21.278Z,10.18
2023-02-23T06:24:51.462Z,10.23
2023-02-23T06:27:21.739Z,10.36
2023-02-23T06:29:51.806Z,10.40
2023-02-23T06:32:24.497Z,10.44
2023-02-23T06:34:54.755Z,10.55
2023-02-23T06:37:24.876Z,10.63
2023-02-23T06:39:55.056Z,10.68
2023-02-23T06:42:25.166Z,10.73
2023-02-23T06:44:55.270Z,10.76
2023-02-23T06:47:27.981Z,10.68
2023-02-23T06:50:00.003Z,10.76
2023-02-23T06:52:30.111Z,10.77
2023-02-23T06:55:00.609Z,10.86
2023-02-23T06:57:30.819Z,10.84
2023-02-23T07:00:01.825Z,10.80
2023-02-23T07:02:35.282Z,10.80
2023-02-23T07:05:05.313Z,10.91
2023-02-23T07:07:35.826Z,11.01
2023-02-23T07:10:06.389Z,11.07
2023-02-23T07:12:36.523Z,11.15
2023-02-23T07:15:07.277Z,11.21
2023-02-23T07:17:40.071Z,11.25
2023-02-23T07:20:11.151Z,11.29
2023-02-23T07:22:41.176Z,11.39
2023-02-23T07:25:12.425Z,11.43
2023-02-23T07:27:42.552Z,11.49
2023-02-23T07:30:14.002Z,11.49
2023-02-23T07:32:46.818Z,11.56
2023-02-23T07:35:16.891Z,11.58
2023-02-23T07:37:46.975Z,11.58
2023-02-23T07:40:17.723Z,11.71
2023-02-23T07:42:47.826Z,11.73
2023-02-23T07:45:18.201Z,11.83
2023-02-23T07:47:50.894Z,11.95
2023-02-23T07:50:21.054Z,12.02
2023-02-23T07:52:51.204Z,12.15
2023-02-23T07:55:22.527Z,12.24
2023-02-23T07:57:52.589Z,12.31
2023-02-23T08:00:23.244Z,12.44
2023-02-23T08:02:56.022Z,12.45
2023-02-23T08:05:26.640Z,12.52
2023-02-23T08:07:57.999Z,12.59
2023-02-23T08:10:28.544Z,12.69
2023-02-23T08:12:58.620Z,12.71
2023-02-23T08:15:28.740Z,12.76
2023-02-23T08:18:01.494Z,12.81
2023-02-23T08:20:31.681Z,12.78
2023-02-23T08:23:02.201Z,12.81
2023-02-23T08:25:33.121Z,12.83
2023-02-23T08:28:04.850Z,12.86
2023-02-23T08:30:35.475Z,12.93
2023-02-23T08:33:08.378Z,12.93
2023-02-23T08:35:38.478Z,13.02
2023-02-23T08:38:08.504Z,13.18
2023-02-23T08:40:38.543Z,13.39
2023-02-23T08:43:08.523Z,13.46
2023-02-23T08:45:38.811Z,13.44
2023-02-23T08:48:11.741Z,13.44
2023-02-23T08:50:41.874Z,13.53
2023-02-23T08:53:11.989Z,13.50
2023-02-23T08:55:42.115Z,13.65
2023-02-23T08:58:12.801Z,13.90
2023-02-23T09:00:43.315Z,13.96
2023-02-23T09:03:16.041Z,13.86
2023-02-23T09:05:46.406Z,13.78
2023-02-23T09:08:17.409Z,13.76
2023-02-23T09:10:49.981Z,13.77
2023-02-23T09:13:20.080Z,13.88
2023-02-23T09:15:50.825Z,14.12
2023-02-23T09:18:28.000Z,14.59
2023-02-23T09:20:58.178Z,14.80
2023-02-23T09:23:31.692Z,15.03
2023-02-23T09:26:05.845Z,15.42
2023-02-23T09:28:36.434Z,15.76
2023-02-23T09:31:09.372Z,15.88
2023-02-23T09:33:42.404Z,16.07
2023-02-23T09:36:16.376Z,16.19
2023-02-23T09:38:46.858Z,16.38
2023-02-23T09:41:43.353Z,16.49
2023-02-23T09:44:21.583Z,16.74
2023-02-23T09:46:57.462Z,16.86
2023-02-23T09:49:33.554Z,17.26
2023-02-23T09:52:05.754Z,17.32
2023-02-23T09:54:37.516Z,17.66
2023-02-23T09:57:14.425Z,17.70
2023-02-23T09:59:45.180Z,17.95
2023-02-23T10:02:27.169Z,18.13
2023-02-23T10:05:02.897Z,18.43
2023-02-23T10:07:40.725Z,18.48
2023-02-23T10:10:21.464Z,18.61
2023-02-23T10:12:58.061Z,18.89
2023-02-23T10:15:31.197Z,18.83
2023-02-23T10:18:15.215Z,18.93
2023-02-23T10:20:54.112Z,18.98
2023-02-23T10:23:31.368Z,19.02
2023-02-23T10:26:03.968Z,18.76
2023-02-23T10:28:39.179Z,19.18
2023-02-23T10:31:24.035Z,19.02
2023-02-23T10:33:55.820Z,18.82
2023-02-23T10:36:36.187Z,19.08
2023-02-23T10:39:09.262Z,19.52
2023-02-23T10:41:40.142Z,19.58
2023-02-23T10:44:20.575Z,19.75
2023-02-23T10:46:55.765Z,19.64
2023-02-23T10:49:30.305Z,19.28
2023-02-23T10:52:03.859Z,18.81
2023-02-23T10:54:47.768Z,18.60
2023-02-23T10:57:27.804Z,18.34
2023-02-23T11:00:32.958Z,18.00
2023-02-23T11:03:04.651Z,17.75
2023-02-23T11:05:50.627Z,17.79
2023-02-23T11:08:32.238Z,17.69
2023-02-23T11:11:11.728Z,17.43
2023-02-23T11:13:44.443Z,17.43
2023-02-23T11:16:16.010Z,17.43
2023-02-23T11:18:54.901Z,17.41
2023-02-23T11:21:27.660Z,17.31
2023-02-23T11:24:01.951Z,17.39
2023-02-23T11:26:35.758Z,17.01
2023-02-23T11:29:11.141Z,16.89
2023-02-23T11:31:41.775Z,17.47
2023-02-23T11:34:25.682Z,18.18
2023-02-23T11:37:07.399Z,18.93
2023-02-23T11:39:40.628Z,19.45
2023-02-23T11:42:19.834Z,20.21
2023-02-23T11:44:56.036Z,20.69
2023-02-23T11:47:27.143Z,20.82
2023-02-23T11:49:57.549Z,21.32
2023-02-23T11:52:28.779Z,21.79
2023-02-23T11:55:03.432Z,21.63
2023-02-23T11:57:35.966Z,21.05
2023-02-23T12:00:16.895Z,20.30
2023-02-23T12:02:55.466Z,19.79
2023-02-23T12:05:27.256Z,19.08
2023-02-23T12:08:00.636Z,19.26
2023-02-23T12:10:37.189Z,19.13
2023-02-23T12:13:15.436Z,19.20
2023-02-23T12:15:51.230Z,18.88
2023-02-23T12:18:33.488Z,18.83
2023-02-23T12:21:11.275Z,18.30
2023-02-23T12:23:44.291Z,17.79
2023-02-23T12:26:21.715Z,17.64
2023-02-23T12:28:58.927Z,17.36
2023-02-23T12:31:31.865Z,16.94
2023-02-23T12:34:05.932Z,16.68
2023-02-23T12:36:41.351Z,16.81
2023-02-23T12:39:20.891Z,16.82
2023-02-23T12:42:00.346Z,16.82
2023-02-23T12:44:38.512Z,17.23
2023-02-23T12:47:15.490Z,17.93
2023-02-23T12:49:49.065Z,18.00
2023-02-23T12:52:22.421Z,17.79
2023-02-23T12:54:52.486Z,17.47
2023-02-23T12:57:33.465Z,17.36
2023-02-23T13:00:36.477Z,17.01
2023-02-23T13:03:41.814Z,16.95
2023-02-23T13:06:14.664Z,16.64
2023-02-23T13:08:59.239Z,16.70
2023-02-23T13:12:03.374Z,16.70
2023-02-23T13:14:43.312Z,16.84
2023-02-23T13:17:27.378Z,16.74
2023-02-23T13:20:01.707Z,16.77
2023-02-23T13:22:36.791Z,16.87
2023-02-23T13:25:18.817Z,16.85
2023-02-23T13:27:53.388Z,17.12
2023-02-23T13:30:26.347Z,17.21
2023-02-23T13:32:58.331Z,16.92
2023-02-23T13:35:30.189Z,16.99
2023-02-23T13:38:07.599Z,16.88
2023-02-23T13:40:41.119Z,16.58
2023-02-23T13:43:18.813Z,16.10
2023-02-23T13:46:02.324Z,16.06
2023-02-23T13:48:56.057Z,16.04
2023-02-23T13:51:36.179Z,15.94
2023-02-23T13:54:10.115Z,16.09
2023-02-23T13:56:46.396Z,16.20
2023-02-23T13:59:20.584Z,16.19
2023-02-23T14:01:56.071Z,16.03
2023-02-23T14:04:28.633Z,15.93
2023-02-23T14:07:08.346Z,15.94
2023-02-23T14:09:40.665Z,15.86
2023-02-23T14:12:19.514Z,15.81
2023-02-23T14:14:50.033Z,15.72
2023-02-23T14:17:50.604Z,15.75
2023-02-23T14:20:37.380Z,15.79
2023-02-23T14:23:31.736Z,15.80
2023-02-23T14:26:20.628Z,16.05
2023-02-23T14:28:52.159Z,16.27
2023-02-23T14:31:26.230Z,16.42
2023-02-23T14:34:03.505Z,16.55
2023-02-23T14:36:41.538Z,16.54
2023-02-23T14:39:17.400Z,16.58
2023-02-23T14:41:53.007Z,16.54
2023-02-23T14:44:29.982Z,16.43
2023-02-23T14:47:04.878Z,16.33
2023-02-23T14:49:40.798Z,16.21
2023-02-23T14:52:12.840Z,16.18
2023-02-23T14:54:44.020Z,16.08
2023-02-23T14:57:21.931Z,16.04
2023-02-23T14:59:57.522Z,15.94
2023-02-23T15:02:29.400Z,15.91
2023-02-23T15:05:02.200Z,15.83
2023-02-23T15:07:35.378Z,15.76
2023-02-23T15:10:11.987Z,15.68
2023-02-23T15:12:42.418Z,15.61
2023-02-23T15:15:20.913Z,15.56
2023-02-23T15:17:53.271Z,15.49
2023-02-23T15:20:28.872Z,15.53
2023-02-23T15:23:00.659Z,15.48
2023-02-23T15:25:38.816Z,15.45
2023-02-23T15:28:25.457Z,15.42
2023-02-23T15:30:56.615Z,15.36
2023-02-23T15:33:28.958Z,15.31
2023-02-23T15:36:09.553Z,15.26
2023-02-23T15:38:44.668Z,15.25
2023-02-23T15:41:23.259Z,15.26
2023-02-23T15:43:53.450Z,15.20
2023-02-23T15:46:26.791Z,15.12
2023-02-23T15:48:57.956Z,15.04
2023-02-23T15:51:35.785Z,15.00
2023-02-23T15:54:14.194Z,14.81
2023-02-23T15:56:46.993Z,14.62
2023-02-23T15:59:24.235Z,14.51
2023-02-23T16:01:57.289Z,14.42
2023-02-23T16:04:32.475Z,14.30
2023-02-23T16:07:20.000Z,14.22
2023-02-23T16:09:52.889Z,14.09
2023-02-23T16:12:26.203Z,13.90
2023-02-23T16:14:58.740Z,13.84
2023-02-23T16:17:31.926Z,13.62
2023-02-23T16:20:13.884Z,13.56
2023-02-23T16:22:48.027Z,13.42
2023-02-23T16:25:20.816Z,13.35
2023-02-23T16:27:55.741Z,13.35
2023-02-23T16:30:37.682Z,13.20
2023-02-23T16:33:10.354Z,13.25
2023-02-23T16:35:42.142Z,13.20
2023-02-23T16:38:23.781Z,13.19
2023-02-23T16:40:53.938Z,13.11
2023-02-23T16:43:24.444Z,13.09
2023-02-23T16:45:54.783Z,13.08
2023-02-23T16:48:24.872Z,13.07
2023-02-23T16:50:55.208Z,13.05
2023-02-23T16:53:27.873Z,13.03
2023-02-23T16:56:01.003Z,12.99
2023-02-23T16:58:32.747Z,12.91
2023-02-23T17:01:02.873Z,12.96
2023-02-23T17:03:36.029Z,12.95
2023-02-23T17:06:08.860Z,12.96
2023-02-23T17:08:52.192Z,12.98
2023-02-23T17:11:26.154Z,13.00
2023-02-23T17:13:56.351Z,12.99
2023-02-23T17:16:26.540Z,12.97
2023-02-23T17:18:59.696Z,12.95
2023-02-23T17:21:31.844Z,13.00
2023-02-23T17:24:04.589Z,12.98
2023-02-23T17:26:34.644Z,12.94
2023-02-23T17:29:04.829Z,12.97
2023-02-23T17:31:36.260Z,12.98
2023-02-23T17:34:06.457Z,12.91
2023-02-23T17:36:36.853Z,12.82
2023-02-23T17:39:10.068Z,12.84
2023-02-23T17:41:40.133Z,12.80
2023-02-23T17:44:10.185Z,12.80
2023-02-23T17:46:40.597Z,12.76
2023-02-23T17:49:10.666Z,12.65
2023-02-23T17:51:40.803Z,12.60
2023-02-23T17:54:14.236Z,12.41
2023-02-23T17:56:44.835Z,12.34
2023-02-23T17:59:15.273Z,12.14
2023-02-23T18:01:47.341Z,12.14
2023-02-23T18:04:18.432Z,12.11
2023-02-23T18:06:48.528Z,12.19
2023-02-23T18:09:21.223Z,12.19
2023-02-23T18:11:51.344Z,12.18
2023-02-23T18:14:21.405Z,12.16
2023-02-23T18:16:51.547Z,12.18
2023-02-23T18:19:21.888Z,12.21
2023-02-23T18:21:54.862Z,12.25
2023-02-23T18:24:31.051Z,12.21
2023-02-23T18:27:03.473Z,12.14
2023-02-23T18:29:34.906Z,12.16
2023-02-23T18:32:08.087Z,12.15
2023-02-23T18:34:38.357Z,12.25
2023-02-23T18:37:10.334Z,12.33
2023-02-23T18:39:43.195Z,12.36
2023-02-23T18:42:13.263Z,12.29
2023-02-23T18:44:43.321Z,12.18
2023-02-23T18:47:13.368Z,11.89
2023-02-23T18:49:43.509Z,11.79
2023-02-23T18:52:13.671Z,11.72
2023-02-23T18:54:46.402Z,11.69
2023-02-23T18:57:16.477Z,11.84
2023-02-23T18:59:47.556Z,12.00
2023-02-23T19:02:19.019Z,12.06
2023-02-23T19:04:49.147Z,12.00
2023-02-23T19:07:19.999Z,11.99
2023-02-23T19:09:52.656Z,12.02
2023-02-23T19:12:22.741Z,11.98
2023-02-23T19:14:53.832Z,11.84
2023-02-23T19:17:24.565Z,11.91
2023-02-23T19:19:56.193Z,11.88
2023-02-23T19:22:26.602Z,11.94
2023-02-23T19:24:59.361Z,12.01
2023-02-23T19:27:29.452Z,12.12
2023-02-23T19:29:59.652Z,12.03
2023-02-23T19:32:29.913Z,12.07
2023-02-23T19:34:59.993Z,12.01
2023-02-23T19:37:30.039Z,12.11
2023-02-23T19:40:04.088Z,12.13
2023-02-23T19:42:36.957Z,12.16
2023-02-23T19:45:07.798Z,12.20
2023-02-23T19:47:37.834Z,12.15
2023-02-23T19:50:08.515Z,12.17
2023-02-23T19:52:38.896Z,12.16
2023-02-23T19:55:12.958Z,12.12
2023-02-23T19:57:43.210Z,12.03
2023-02-23T20:00:14.630Z,12.00
2023-02-23T20:02:45.536Z,11.98
2023-02-23T20:05:17.481Z,11.95
2023-02-23T20:07:48.369Z,12.01
2023-02-23T20:10:25.800Z,11.99
2023-02-23T20:12:56.047Z,11.98
2023-02-23T20:15:28.574Z,12.02
2023-02-23T20:17:58.587Z,12.01
2023-02-23T20:20:29.280Z,12.03
2023-02-23T20:22:59.472Z,12.08
2023-02-23T20:25:32.269Z,12.09
2023-02-23T20:28:02.431Z,12.12
2023-02-23T20:30:32.952Z,12.10
2023-02-23T20:33:06.465Z,12.09
2023-02-23T20:35:36.721Z,12.09
2023-02-23T20:38:07.074Z,12.01
2023-02-23T20:40:40.317Z,11.89
2023-02-23T20:43:10.479Z,11.81
2023-02-23T20:45:41.760Z,11.81
2023-02-23T20:48:12.456Z,11.89
2023-02-23T20:50:43.601Z,11.75
2023-02-23T20:53:13.870Z,11.72
2023-02-23T20:55:46.573Z,11.68
2023-02-23T20:58:26.299Z,11.63
2023-02-23T21:00:57.247Z,11.65
2023-02-23T21:03:28.195Z,11.57
2023-02-23T21:05:58.411Z,11.48
2023-02-23T21:08:28.924Z,11.47
2023-02-23T21:11:08.994Z,11.48
2023-02-23T21:13:39.614Z,11.47
2023-02-23T21:16:10.619Z,11.42
2023-02-23T21:18:40.691Z,11.44
2023-02-23T21:21:14.057Z,11.48
2023-02-23T21:23:45.172Z,11.49
2023-02-23T21:26:21.761Z,11.43
2023-02-23T21:28:52.093Z,11.41
2023-02-23T21:31:22.524Z,11.30
2023-02-23T21:33:53.102Z,11.14
2023-02-23T21:36:23.301Z,11.11
2023-02-23T21:38:53.393Z,11.18
2023-02-23T21:41:27.500Z,11.21
2023-02-23T21:43:57.733Z,11.00
2023-02-23T21:46:27.986Z,10.95
2023-02-23T21:48:58.296Z,10.90
2023-02-23T21:51:28.742Z,10.84
2023-02-23T21:54:00.303Z,10.84
2023-02-23T21:56:34.962Z,10.84
2023-02-23T21:59:08.340Z,10.78
2023-02-23T22:01:40.940Z,10.71
2023-02-23T22:04:12.098Z,10.75
2023-02-23T22:06:43.853Z,10.73
2023-02-23T22:09:15.753Z,10.70
2023-02-23T22:11:50.292Z,10.78
2023-02-23T22:14:22.343Z,10.81
2023-02-23T22:16:52.612Z,10.64
2023-02-23T22:19:22.797Z,10.50
2023-02-23T22:21:52.894Z,10.58
2023-02-23T22:24:22.945Z,10.77
2023-02-23T22:26:56.917Z,10.81
2023-02-23T22:29:28.760Z,10.85
2023-02-23T22:31:58.919Z,10.91
2023-02-23T22:34:29.115Z,10.89
2023-02-23T22:36:59.235Z,10.87
2023-02-23T22:39:33.393Z,10.87
2023-02-23T22:42:09.466Z,10.88
2023-02-23T22:44:41.903Z,10.87
2023-02-23T22:47:12.056Z,10.90
2023-02-23T22:49:42.181Z,10.91
2023-02-23T22:52:12.899Z,10.98
2023-02-23T22:54:45.661Z,10.98
2023-02-23T22:57:18.396Z,10.98
2023-02-23T22:59:54.849Z,10.99
2023-02-23T23:02:25.341Z,10.93
2023-02-23T23:04:55.463Z,10.92
2023-02-23T23:07:26.081Z,10.90
2023-02-23T23:09:56.530Z,10.96
2023-02-23T23:12:29.722Z,10.95
2023-02-23T23:15:01.411Z,10.96
2023-02-23T23:17:31.932Z,10.96
2023-02-23T23:20:10.772Z,10.89
2023-02-23T23:22:41.642Z,10.94
2023-02-23T23:25:14.987Z,10.94
2023-02-23T23:27:48.097Z,10.94
2023-02-23T23:30:21.199Z,10.92
2023-02-23T23:32:51.327Z,10.88
2023-02-23T23:35:21.977Z,10.86
2023-02-23T23:37:52.781Z,10.88
2023-02-23T23:40:24.623Z,10.88
2023-02-23T23:42:57.469Z,10.87
2023-02-23T23:45:27.961Z,10.86
2023-02-23T23:47:58.101Z,10.89
2023-02-23T23:50:28.162Z,10.87
2023-02-23T23:52:58.232Z,10.81
2023-02-23T23:55:31.665Z,10.71
2023-02-23T23:58:06.219Z,10.62
